createdAt,value
2022-08-20T00:02:10.645Z,6.80
2022-08-20T00:04:39.560Z,6.93
2022-08-20T00:07:07.594Z,7.13
2022-08-20T00:09:36.704Z,7.13
2022-08-20T00:12:05.410Z,6.65
2022-08-20T00:14:34.011Z,7.18
2022-08-20T00:17:02.090Z,7.55
2022-08-20T00:19:29.703Z,7.22
2022-08-20T00:21:58.347Z,7.28
2022-08-20T00:24:26.442Z,7.03
2022-08-20T00:26:53.880Z,7.55
2022-08-20T00:29:22.472Z,7.32
2022-08-20T00:31:50.764Z,7.75
2022-08-20T00:34:18.254Z,15.50
2022-08-20T00:36:45.767Z,6.93
2022-08-20T00:39:13.323Z,7.53
2022-08-20T00:41:40.810Z,7.03
2022-08-20T00:44:13.936Z,13.27
2022-08-20T00:46:42.078Z,7.47
2022-08-20T00:49:10.361Z,11.48
2022-08-20T00:51:53.604Z,7.38
2022-08-20T00:54:30.490Z,14.52
2022-08-20T00:57:02.850Z,9.48
2022-08-20T00:59:31.914Z,10.10
2022-08-20T01:02:00.864Z,7.70
2022-08-20T01:04:31.449Z,7.20
2022-08-20T01:06:58.969Z,7.53
2022-08-20T01:09:33.517Z,7.75
2022-08-20T01:12:15.414Z,8.23
2022-08-20T01:14:46.703Z,11.18
2022-08-20T01:17:17.661Z,7.93
2022-08-20T01:19:54.907Z,8.00
2022-08-20T01:22:45.316Z,8.68
2022-08-20T01:25:23.922Z,7.90
2022-08-20T01:27:53.227Z,8.73
2022-08-20T01:30:24.243Z,9.23
2022-08-20T01:32:51.819Z,7.93
2022-08-20T01:35:21.588Z,11.73
2022-08-20T01:37:49.218Z,10.80
2022-08-20T01:40:24.705Z,9.10
2022-08-20T01:42:58.649Z,8.55
2022-08-20T01:45:29.256Z,8.13
2022-08-20T01:47:58.252Z,8.40
2022-08-20T01:50:27.499Z,7.97
2022-08-20T01:53:15.762Z,8.57
2022-08-20T01:55:43.737Z,7.90
2022-08-20T01:58:11.214Z,8.20
2022-08-20T02:00:38.927Z,8.15
2022-08-20T02:03:07.785Z,8.52
2022-08-20T02:05:36.048Z,8.63
2022-08-20T02:08:03.932Z,8.60
2022-08-20T02:10:32.018Z,8.30
2022-08-20T02:13:00.424Z,8.48
2022-08-20T02:15:35.224Z,7.90
2022-08-20T02:18:10.404Z,8.57
2022-08-20T02:20:38.395Z,8.25
2022-08-20T02:23:06.422Z,8.80
2022-08-20T02:25:35.237Z,8.30
2022-08-20T02:28:03.824Z,8.40
2022-08-20T02:30:33.406Z,8.38
2022-08-20T02:33:01.923Z,8.80
2022-08-20T02:35:32.030Z,8.30
2022-08-20T02:38:01.820Z,9.82
2022-08-20T02:40:30.754Z,8.80
2022-08-20T02:43:02.850Z,10.10
2022-08-20T02:45:31.584Z,11.10
2022-08-20T02:47:59.427Z,9.05
2022-08-20T02:50:27.309Z,9.38
2022-08-20T02:52:55.256Z,8.73
2022-08-20T02:55:27.663Z,9.60
2022-08-20T02:57:58.512Z,9.10
2022-08-20T03:00:27.313Z,8.55
2022-08-20T03:02:54.842Z,9.07
2022-08-20T03:05:22.410Z,9.95
2022-08-20T03:07:53.841Z,9.77
2022-08-20T03:10:25.696Z,8.90
2022-08-20T03:12:53.378Z,9.10
2022-08-20T03:15:20.917Z,8.68
2022-08-20T03:17:48.646Z,8.70
2022-08-20T03:20:16.172Z,9.40
2022-08-20T03:22:43.686Z,9.38
2022-08-20T03:25:11.917Z,9.40
2022-08-20T03:27:39.483Z,9.15
2022-08-20T03:30:08.833Z,9.55
2022-08-20T03:32:36.614Z,8.32
2022-08-20T03:35:05.818Z,8.85
2022-08-20T03:37:34.350Z,8.77
2022-08-20T03:40:03.364Z,9.93
2022-08-20T03:42:31.266Z,8.68
2022-08-20T03:44:59.392Z,10.10
2022-08-20T03:47:27.195Z,8.77
2022-08-20T03:49:59.060Z,8.48
2022-08-20T03:52:29.006Z,9.07
2022-08-20T03:54:57.287Z,8.35
2022-08-20T03:57:25.279Z,9.10
2022-08-20T03:59:55.126Z,8.65
2022-08-20T04:02:27.156Z,8.85
2022-08-20T04:04:55.245Z,9.95
2022-08-20T04:07:27.554Z,9.13
2022-08-20T04:09:56.165Z,42.17
2022-08-20T04:12:24.430Z,9.93
2022-08-20T04:14:52.572Z,11.02
2022-08-20T04:17:21.071Z,8.88
2022-08-20T04:19:50.127Z,8.50
2022-08-20T04:22:17.630Z,9.63
2022-08-20T04:24:45.119Z,10.15
2022-08-20T04:27:14.821Z,9.57
2022-08-20T04:29:45.873Z,13.60
2022-08-20T04:32:14.048Z,12.07
2022-08-20T04:34:44.549Z,10.73
2022-08-20T04:37:16.826Z,8.50
2022-08-20T04:39:44.976Z,8.88
2022-08-20T04:42:12.434Z,10.68
2022-08-20T04:44:39.917Z,9.63
2022-08-20T04:47:07.988Z,10.70
2022-08-20T04:49:35.465Z,8.43
2022-08-20T04:52:03.280Z,9.98
2022-08-20T04:54:31.438Z,9.85
2022-08-20T04:57:01.613Z,9.48
2022-08-20T04:59:29.124Z,9.15
2022-08-20T05:01:56.544Z,9.27
2022-08-20T05:04:27.660Z,9.38
2022-08-20T05:06:55.642Z,9.50
2022-08-20T05:09:23.745Z,8.70
2022-08-20T05:11:51.372Z,9.52
2022-08-20T05:14:18.805Z,8.85
2022-08-20T05:16:46.430Z,7.88
2022-08-20T05:19:14.587Z,7.97
2022-08-20T05:21:42.481Z,7.80
2022-08-20T05:24:11.429Z,8.00
2022-08-20T05:26:38.933Z,7.70
2022-08-20T05:29:07.608Z,8.48
2022-08-20T05:31:35.710Z,8.32
2022-08-20T05:34:09.828Z,7.65
2022-08-20T05:36:43.463Z,7.25
2022-08-20T05:39:11.147Z,7.28
2022-08-20T05:41:39.449Z,6.72
2022-08-20T05:44:13.499Z,6.80
2022-08-20T05:49:09.896Z,6.95
2022-08-20T05:51:37.983Z,9.30
2022-08-20T05:54:06.298Z,6.95
2022-08-20T05:56:34.914Z,6.95
2022-08-20T05:59:04.278Z,6.95
2022-08-20T06:01:32.893Z,6.28
2022-08-20T06:04:18.910Z,6.75
2022-08-20T06:06:47.383Z,7.18
2022-08-20T06:09:31.934Z,6.15
2022-08-20T06:12:01.350Z,6.43
2022-08-20T06:14:28.953Z,6.45
2022-08-20T06:16:57.600Z,7.30
2022-08-20T06:19:27.114Z,6.38
2022-08-20T06:21:59.673Z,9.50
2022-08-20T06:24:27.153Z,5.00
2022-08-20T06:27:02.674Z,5.20
2022-08-20T06:29:31.858Z,5.07
2022-08-20T06:31:59.263Z,4.75
2022-08-20T06:34:30.827Z,6.32
2022-08-20T06:36:59.249Z,5.47
2022-08-20T06:39:29.645Z,4.80
2022-08-20T06:41:58.773Z,4.90
2022-08-20T06:44:28.341Z,5.32
2022-08-20T06:46:56.498Z,5.13
2022-08-20T06:49:24.040Z,5.65
2022-08-20T06:51:52.109Z,5.10
2022-08-20T06:54:19.672Z,5.00
2022-08-20T06:56:47.101Z,5.25
2022-08-20T06:59:14.614Z,4.72
2022-08-20T07:01:42.194Z,5.00
2022-08-20T07:04:09.741Z,5.10
2022-08-20T07:06:37.331Z,4.78
2022-08-20T07:09:04.938Z,4.80
2022-08-20T07:11:33.165Z,5.15
2022-08-20T07:14:01.383Z,5.07
2022-08-20T07:16:28.858Z,4.53
2022-08-20T07:18:56.299Z,4.97
2022-08-20T07:21:23.775Z,5.22
2022-08-20T07:23:51.257Z,4.70
2022-08-20T07:26:18.973Z,4.80
2022-08-20T07:28:46.443Z,4.95
2022-08-20T07:31:34.838Z,4.57
2022-08-20T07:34:02.997Z,4.35
2022-08-20T07:36:30.776Z,4.43
2022-08-20T07:38:58.602Z,5.53
2022-08-20T07:41:26.198Z,4.07
2022-08-20T07:43:53.863Z,4.45
2022-08-20T07:46:21.859Z,4.35
2022-08-20T07:48:51.680Z,4.38
2022-08-20T07:51:20.138Z,4.55
2022-08-20T07:53:48.184Z,4.43
2022-08-20T07:56:17.260Z,4.60
2022-08-20T07:58:49.727Z,4.25
2022-08-20T08:01:20.083Z,4.57
2022-08-20T08:03:49.807Z,4.22
2022-08-20T08:06:28.409Z,4.45
2022-08-20T08:09:00.210Z,4.80
2022-08-20T08:11:27.665Z,4.15
2022-08-20T08:13:55.137Z,4.32
2022-08-20T08:16:22.712Z,4.28
2022-08-20T08:18:53.256Z,4.20
2022-08-20T08:21:22.453Z,4.95
2022-08-20T08:23:50.279Z,4.85
2022-08-20T08:26:19.260Z,3.95
2022-08-20T08:28:46.982Z,4.30
2022-08-20T08:31:15.177Z,3.80
2022-08-20T08:33:42.934Z,4.00
2022-08-20T08:36:14.853Z,4.38
2022-08-20T08:38:44.386Z,4.40
2022-08-20T08:41:20.327Z,3.97
2022-08-20T08:43:49.489Z,4.82
2022-08-20T08:46:21.562Z,4.07
2022-08-20T08:48:50.163Z,4.18
2022-08-20T08:51:20.517Z,3.85
2022-08-20T08:53:53.563Z,3.97
2022-08-20T08:56:31.478Z,3.90
2022-08-20T08:59:01.205Z,4.50
2022-08-20T09:01:55.063Z,4.47
2022-08-20T09:04:17.637Z,4.72
2022-08-20T09:06:55.525Z,4.53
2022-08-20T09:09:27.392Z,4.30
2022-08-20T09:11:55.784Z,4.60
2022-08-20T09:14:25.053Z,4.28
2022-08-20T09:16:53.602Z,4.32
2022-08-20T09:19:21.664Z,4.70
2022-08-20T09:21:49.216Z,5.05
2022-08-20T09:24:16.699Z,4.95
2022-08-20T09:26:44.368Z,4.28
2022-08-20T09:29:11.967Z,4.35
2022-08-20T09:31:39.866Z,4.00
2022-08-20T09:34:07.880Z,4.80
2022-08-20T09:36:35.457Z,4.40
2022-08-20T09:39:03.500Z,4.43
2022-08-20T09:41:34.301Z,4.45
2022-08-20T09:44:02.351Z,4.90
2022-08-20T09:46:29.806Z,4.70
2022-08-20T09:48:57.302Z,5.20
2022-08-20T09:51:24.761Z,5.25
2022-08-20T09:53:52.965Z,6.00
2022-08-20T09:56:20.607Z,5.50
2022-08-20T09:58:48.017Z,5.13
2022-08-20T10:01:17.040Z,4.70
2022-08-20T10:03:45.336Z,4.30
2022-08-20T10:06:14.821Z,4.53
2022-08-20T10:08:42.321Z,4.45
2022-08-20T10:11:09.857Z,4.32
2022-08-20T10:13:37.307Z,4.90
2022-08-20T10:16:04.858Z,4.60
2022-08-20T10:18:32.276Z,4.85
2022-08-20T10:20:59.761Z,5.18
2022-08-20T10:23:27.360Z,4.65
2022-08-20T10:25:54.877Z,10.75
2022-08-20T10:28:22.350Z,4.47
2022-08-20T10:30:49.798Z,4.70
2022-08-20T10:33:17.350Z,4.75
2022-08-20T10:35:45.027Z,7.43
2022-08-20T10:38:12.452Z,4.93
2022-08-20T10:40:40.004Z,4.55
2022-08-20T10:43:07.414Z,4.88
2022-08-20T10:45:35.037Z,5.20
2022-08-20T10:48:04.256Z,4.90
2022-08-20T10:50:31.679Z,5.57
2022-08-20T10:52:59.325Z,8.25
2022-08-20T10:55:26.792Z,5.07
2022-08-20T10:57:54.296Z,5.05
2022-08-20T11:00:22.248Z,5.97
2022-08-20T11:02:50.168Z,5.53
2022-08-20T11:05:17.636Z,4.80
2022-08-20T11:07:55.183Z,5.38
2022-08-20T11:10:28.978Z,5.20
2022-08-20T11:12:56.540Z,5.60
2022-08-20T11:15:24.047Z,5.40
2022-08-20T11:17:51.534Z,4.80
2022-08-20T11:20:20.888Z,5.15
2022-08-20T11:22:48.749Z,9.60
2022-08-20T11:25:16.241Z,4.82
2022-08-20T11:27:45.465Z,5.78
2022-08-20T11:30:14.597Z,5.13
2022-08-20T11:32:42.159Z,34.33
2022-08-20T11:35:40.455Z,5.82
2022-08-20T11:37:58.518Z,5.30
2022-08-20T11:40:26.968Z,13.18
2022-08-20T11:43:13.590Z,5.72
2022-08-20T11:45:42.025Z,7.43
2022-08-20T11:48:09.501Z,5.07
2022-08-20T11:50:37.042Z,6.90
2022-08-20T11:53:04.545Z,5.32
2022-08-20T11:55:32.676Z,5.07
2022-08-20T11:58:01.107Z,5.18
2022-08-20T12:00:32.662Z,5.00
2022-08-20T12:03:05.617Z,5.13
2022-08-20T12:05:37.099Z,4.72
2022-08-20T12:08:05.372Z,5.70
2022-08-20T12:10:33.368Z,5.32
2022-08-20T12:13:01.726Z,5.20
2022-08-20T12:15:32.235Z,5.22
2022-08-20T12:17:59.737Z,5.68
2022-08-20T12:20:27.217Z,5.80
2022-08-20T12:22:54.730Z,6.65
2022-08-20T12:25:22.228Z,7.28
2022-08-20T12:27:49.658Z,5.50
2022-08-20T12:30:19.965Z,5.75
2022-08-20T12:32:47.814Z,5.60
2022-08-20T12:35:16.398Z,6.53
2022-08-20T12:37:44.211Z,6.70
2022-08-20T12:40:13.994Z,6.72
2022-08-20T12:42:41.613Z,5.93
2022-08-20T12:45:09.338Z,5.43
2022-08-20T12:47:38.830Z,5.47
2022-08-20T12:50:08.814Z,5.68
2022-08-20T12:52:36.883Z,4.88
2022-08-20T12:55:05.370Z,5.95
2022-08-20T12:57:34.518Z,6.60
2022-08-20T13:00:04.972Z,5.90
2022-08-20T13:02:32.480Z,5.40
2022-08-20T13:05:04.626Z,5.60
2022-08-20T13:07:33.566Z,5.23
2022-08-20T13:10:01.551Z,5.13
2022-08-20T13:12:29.200Z,5.68
2022-08-20T13:14:56.682Z,6.20
2022-08-20T13:17:38.026Z,5.47
2022-08-20T13:20:08.334Z,5.03
2022-08-20T13:22:35.738Z,6.07
2022-08-20T13:25:03.267Z,5.35
2022-08-20T13:27:30.723Z,4.97
2022-08-20T13:29:59.058Z,5.07
2022-08-20T13:32:27.178Z,6.28
2022-08-20T13:34:54.655Z,5.32
2022-08-20T13:37:25.616Z,6.07
2022-08-20T13:39:56.362Z,5.10
2022-08-20T13:42:24.286Z,5.07
2022-08-20T13:44:51.695Z,5.72
2022-08-20T13:47:19.196Z,7.80
2022-08-20T13:49:47.395Z,5.82
2022-08-20T13:52:16.775Z,6.35
2022-08-20T13:54:44.652Z,8.77
2022-08-20T13:57:13.490Z,5.90
2022-08-20T13:59:42.041Z,5.13
2022-08-20T14:02:10.323Z,5.65
2022-08-20T14:04:38.186Z,5.15
2022-08-20T14:07:11.418Z,5.60
2022-08-20T14:09:40.413Z,6.15
2022-08-20T14:12:08.460Z,7.35
2022-08-20T14:14:36.148Z,7.03
2022-08-20T14:17:17.235Z,8.82
2022-08-20T14:19:45.551Z,6.10
2022-08-20T14:22:13.284Z,5.53
2022-08-20T14:24:40.737Z,8.90
2022-08-20T14:27:08.622Z,5.80
2022-08-20T14:29:37.407Z,6.72
2022-08-20T14:32:05.302Z,8.60
2022-08-20T14:34:33.335Z,5.20
2022-08-20T14:37:29.905Z,4.80
2022-08-20T14:39:58.495Z,6.40
2022-08-20T14:42:28.181Z,5.20
2022-08-20T14:44:56.766Z,5.40
2022-08-20T14:47:26.477Z,5.13
2022-08-20T14:49:54.840Z,4.88
2022-08-20T14:52:23.394Z,4.65
2022-08-20T14:54:55.649Z,5.38
2022-08-20T14:57:23.417Z,5.22
2022-08-20T14:59:53.097Z,4.95
2022-08-20T15:02:20.668Z,5.13
2022-08-20T15:04:52.241Z,4.80
2022-08-20T15:07:24.916Z,4.55
2022-08-20T15:09:53.211Z,5.05
2022-08-20T15:12:20.661Z,4.90
2022-08-20T15:14:48.218Z,4.60
2022-08-20T15:17:20.674Z,5.00
2022-08-20T15:19:48.397Z,4.75
2022-08-20T15:22:16.677Z,4.82
2022-08-20T15:24:45.455Z,4.97
2022-08-20T15:27:13.069Z,4.50
2022-08-20T15:29:40.706Z,4.32
2022-08-20T15:32:08.753Z,15.80
2022-08-20T15:34:36.762Z,7.38
2022-08-20T15:37:17.956Z,5.72
2022-08-20T15:39:45.756Z,12.68
2022-08-20T15:42:13.705Z,7.15
2022-08-20T15:44:41.920Z,5.80
2022-08-20T15:47:24.087Z,8.45
2022-08-20T15:49:54.071Z,13.70
2022-08-20T15:52:21.674Z,9.93
2022-08-20T15:54:49.349Z,5.90
2022-08-20T15:57:41.140Z,4.32
2022-08-20T16:00:12.926Z,5.93
2022-08-20T16:02:59.018Z,6.88
2022-08-20T16:05:29.436Z,7.03
2022-08-20T16:08:09.230Z,11.55
2022-08-20T16:10:42.721Z,9.77
2022-08-20T16:13:21.373Z,6.22
2022-08-20T16:15:54.207Z,6.00
2022-08-20T16:18:25.482Z,5.82
2022-08-20T16:20:54.524Z,7.25
2022-08-20T16:23:27.328Z,13.80
2022-08-20T16:26:07.062Z,6.03
2022-08-20T16:28:57.585Z,11.05
2022-08-20T16:31:27.213Z,16.17
2022-08-20T16:34:02.865Z,22.42
2022-08-20T16:36:39.753Z,38.38
2022-08-20T16:39:11.390Z,73.32
2022-08-20T16:41:40.421Z,22.50
2022-08-20T16:44:17.722Z,18.98
2022-08-20T16:46:51.673Z,13.18
2022-08-20T16:51:51.686Z,60.88
2022-08-20T16:54:29.404Z,86.18
2022-08-20T16:57:03.212Z,71.07
2022-08-20T16:59:30.842Z,47.38
2022-08-20T17:02:04.522Z,74.82
2022-08-20T17:04:35.474Z,140.90
2022-08-20T17:07:06.958Z,115.95
2022-08-20T17:09:43.849Z,32.17
2022-08-20T17:12:19.342Z,29.77
2022-08-20T17:14:51.191Z,37.33
2022-08-20T17:17:21.831Z,37.95
2022-08-20T17:19:54.156Z,66.20
2022-08-20T17:22:22.270Z,45.80
2022-08-20T17:24:49.802Z,61.80
2022-08-20T17:27:28.691Z,28.45
2022-08-20T17:29:58.666Z,13.88
2022-08-20T17:32:27.491Z,14.02
2022-08-20T17:34:56.420Z,11.30
2022-08-20T17:37:25.484Z,8.40
2022-08-20T17:40:06.317Z,7.38
2022-08-20T17:42:34.147Z,7.15
2022-08-20T17:45:09.105Z,7.30
2022-08-20T17:47:37.485Z,7.32
2022-08-20T17:50:10.914Z,6.32
2022-08-20T17:52:47.609Z,6.60
2022-08-20T17:55:15.134Z,6.03
2022-08-20T17:57:45.065Z,6.50
2022-08-20T18:00:23.532Z,7.25
2022-08-20T18:02:55.056Z,10.25
2022-08-20T18:05:23.330Z,7.30
2022-08-20T18:08:09.566Z,7.38
2022-08-20T18:10:43.397Z,7.88
2022-08-20T18:13:13.920Z,5.97
2022-08-20T18:15:45.868Z,8.15
2022-08-20T18:18:20.832Z,5.85
2022-08-20T18:21:04.280Z,5.38
2022-08-20T18:23:34.096Z,4.93
2022-08-20T18:26:07.044Z,5.10
2022-08-20T18:28:39.680Z,4.75
2022-08-20T18:31:09.076Z,5.40
2022-08-20T18:33:37.946Z,5.07
2022-08-20T18:36:07.740Z,5.28
2022-08-20T18:38:38.298Z,4.97
2022-08-20T18:41:06.931Z,6.88
2022-08-20T18:43:35.699Z,8.13
2022-08-20T18:46:21.413Z,7.20
2022-08-20T18:48:56.763Z,7.10
2022-08-20T18:51:28.693Z,8.70
2022-08-20T18:53:56.296Z,7.78
2022-08-20T18:56:37.608Z,8.13
2022-08-20T18:59:08.854Z,8.48
2022-08-20T19:01:37.290Z,7.82
2022-08-20T19:04:15.416Z,11.40
2022-08-20T19:06:47.326Z,8.40
2022-08-20T19:09:17.933Z,10.05
2022-08-20T19:11:57.607Z,10.55
2022-08-20T19:14:43.718Z,11.18
2022-08-20T19:17:37.635Z,7.55
2022-08-20T19:20:09.004Z,8.68
2022-08-20T19:22:36.646Z,9.75
2022-08-20T19:25:04.618Z,10.27
2022-08-20T19:27:32.278Z,9.40
2022-08-20T19:29:59.850Z,7.80
2022-08-20T19:32:32.283Z,6.28
2022-08-20T19:35:02.565Z,5.18
2022-08-20T19:37:39.778Z,6.30
2022-08-20T19:40:24.465Z,6.75
2022-08-20T19:42:56.130Z,7.95
2022-08-20T19:45:28.865Z,5.32
2022-08-20T19:47:56.387Z,6.20
2022-08-20T19:50:50.989Z,5.07
2022-08-20T19:53:18.389Z,6.75
2022-08-20T19:56:14.304Z,7.30
2022-08-20T19:58:42.080Z,6.97
2022-08-20T20:01:20.402Z,5.40
2022-08-20T20:03:56.550Z,7.00
2022-08-20T20:06:25.859Z,5.22
2022-08-20T20:08:53.374Z,5.28
2022-08-20T20:11:25.235Z,5.70
2022-08-20T20:13:53.155Z,4.88
2022-08-20T20:16:21.609Z,5.38
2022-08-20T20:19:03.980Z,4.72
2022-08-20T20:21:41.744Z,5.50
2022-08-20T20:24:09.876Z,5.18
2022-08-20T20:26:39.243Z,5.00
2022-08-20T20:29:11.256Z,5.53
2022-08-20T20:31:42.783Z,5.30
2022-08-20T20:34:12.148Z,4.28
2022-08-20T20:36:44.835Z,4.78
2022-08-20T20:39:24.928Z,4.80
2022-08-20T20:41:53.871Z,4.85
2022-08-20T20:44:22.983Z,5.03
2022-08-20T20:46:53.138Z,4.80
2022-08-20T20:49:25.436Z,5.07
2022-08-20T20:51:54.982Z,5.28
2022-08-20T20:54:27.894Z,5.30
2022-08-20T20:57:09.591Z,5.07
2022-08-20T20:59:37.392Z,5.38
2022-08-20T21:02:05.309Z,5.70
2022-08-20T21:04:32.824Z,5.95
2022-08-20T21:07:06.131Z,5.53
2022-08-20T21:09:34.449Z,5.63
2022-08-20T21:12:02.151Z,5.07
2022-08-20T21:14:29.730Z,4.90
2022-08-20T21:16:59.724Z,5.40
2022-08-20T21:19:27.532Z,5.47
2022-08-20T21:21:55.152Z,5.07
2022-08-20T21:24:22.728Z,4.95
2022-08-20T21:26:50.771Z,4.70
2022-08-20T21:29:22.162Z,4.50
2022-08-20T21:31:49.729Z,4.68
2022-08-20T21:34:17.876Z,5.05
2022-08-20T21:36:45.692Z,4.70
2022-08-20T21:39:13.136Z,5.50
2022-08-20T21:41:42.697Z,5.00
2022-08-20T21:44:12.474Z,4.93
2022-08-20T21:46:39.956Z,5.25
2022-08-20T21:49:07.582Z,5.13
2022-08-20T21:51:36.040Z,4.93
2022-08-20T21:54:03.798Z,5.20
2022-08-20T21:56:33.799Z,4.80
2022-08-20T21:59:02.009Z,4.80
2022-08-20T22:01:32.756Z,5.20
2022-08-20T22:04:00.415Z,5.25
2022-08-20T22:06:28.098Z,6.15
2022-08-20T22:08:55.588Z,5.07
2022-08-20T22:11:23.008Z,5.05
2022-08-20T22:13:50.562Z,5.35
2022-08-20T22:16:19.224Z,5.40
2022-08-20T22:18:47.684Z,5.13
2022-08-20T22:21:20.026Z,5.30
2022-08-20T22:23:47.666Z,5.40
2022-08-20T22:26:15.165Z,4.80
2022-08-20T22:28:42.978Z,6.72
2022-08-20T22:31:10.635Z,6.22
2022-08-20T22:33:38.759Z,6.80
2022-08-20T22:36:07.102Z,8.20
2022-08-20T22:38:34.674Z,9.35
2022-08-20T22:41:05.217Z,7.25
2022-08-20T22:43:36.543Z,8.63
2022-08-20T22:46:15.060Z,8.80
2022-08-20T22:48:43.051Z,7.03
2022-08-20T22:51:10.955Z,7.20
2022-08-20T22:53:46.398Z,7.00
2022-08-20T22:56:21.690Z,6.85
2022-08-20T22:58:50.060Z,11.30
2022-08-20T23:01:18.855Z,10.82
2022-08-20T23:03:46.954Z,10.25
2022-08-20T23:06:14.815Z,7.32
2022-08-20T23:08:42.470Z,9.95
2022-08-20T23:11:10.109Z,9.13
2022-08-20T23:13:37.545Z,8.32
2022-08-20T23:16:06.097Z,8.80
2022-08-20T23:18:33.655Z,24.27
2022-08-20T23:21:01.485Z,13.00
2022-08-20T23:23:29.174Z,8.93
2022-08-20T23:25:56.767Z,8.30
2022-08-20T23:28:25.133Z,7.40
2022-08-20T23:30:52.658Z,9.75
2022-08-20T23:33:20.429Z,8.80
2022-08-20T23:35:48.547Z,12.00
2022-08-20T23:38:16.159Z,11.02
2022-08-20T23:40:44.085Z,17.80
2022-08-20T23:43:11.801Z,10.57
2022-08-20T23:45:40.193Z,10.05
2022-08-20T23:48:07.965Z,8.05
2022-08-20T23:50:36.000Z,8.50
2022-08-20T23:53:04.297Z,9.38
2022-08-20T23:55:32.061Z,9.23
2022-08-20T23:57:59.523Z,8.02
